createdAt,value
2018-11-04T00:01:17.123Z,16.00
2018-11-04T00:03:44.081Z,16.80
2018-11-04T00:06:11.004Z,15.13
2018-11-04T00:08:37.948Z,15.07
2018-11-04T00:11:05.315Z,16.90
2018-11-04T00:13:32.259Z,15.30
2018-11-04T00:15:59.191Z,14.60
2018-11-04T00:18:26.143Z,15.17
2018-11-04T00:20:53.090Z,15.20
2018-11-04T00:23:23.367Z,15.70
2018-11-04T00:25:50.263Z,15.80
2018-11-04T00:28:17.244Z,14.67
2018-11-04T00:30:44.367Z,16.13
2018-11-04T00:33:11.294Z,18.13
2018-11-04T00:35:39.174Z,14.97
2018-11-04T00:38:06.107Z,15.93
2018-11-04T00:40:33.059Z,16.07
2018-11-04T00:42:59.990Z,15.43
2018-11-04T00:45:27.006Z,15.40
2018-11-04T00:47:55.837Z,15.77
2018-11-04T00:50:23.815Z,16.00
2018-11-04T00:52:51.658Z,15.43
2018-11-04T00:55:18.647Z,15.83
2018-11-04T00:57:46.578Z,15.00
2018-11-04T01:00:16.370Z,14.53
2018-11-04T01:02:44.107Z,15.63
2018-11-04T01:05:11.015Z,15.63
2018-11-04T01:07:38.361Z,15.80
2018-11-04T01:10:08.260Z,15.03
2018-11-04T01:12:35.122Z,15.43
2018-11-04T01:15:02.074Z,14.40
2018-11-04T01:17:29.028Z,15.93
2018-11-04T01:19:55.976Z,15.20
2018-11-04T01:22:22.907Z,15.37
2018-11-04T01:24:49.844Z,15.80
2018-11-04T01:27:16.979Z,15.10
2018-11-04T01:29:43.959Z,15.00
2018-11-04T01:32:10.883Z,15.07
2018-11-04T01:34:37.831Z,15.90
2018-11-04T01:37:04.961Z,15.20
2018-11-04T01:39:31.928Z,15.30
2018-11-04T01:41:58.866Z,15.20
2018-11-04T01:44:25.806Z,15.10
2018-11-04T01:46:52.758Z,15.83
2018-11-04T01:49:19.695Z,15.23
2018-11-04T01:51:46.647Z,16.67
2018-11-04T01:54:13.591Z,16.00
2018-11-04T01:56:40.547Z,15.60
2018-11-04T01:59:07.487Z,17.17
2018-11-04T02:01:34.437Z,16.10
2018-11-04T02:04:01.370Z,16.87
2018-11-04T02:06:28.314Z,17.00
2018-11-04T02:08:55.271Z,16.10
2018-11-04T02:11:22.210Z,16.00
2018-11-04T02:13:49.172Z,16.13
2018-11-04T02:16:16.143Z,16.00
2018-11-04T02:18:43.040Z,15.43
2018-11-04T02:21:10.002Z,16.17
2018-11-04T02:23:36.946Z,16.73
2018-11-04T02:26:03.875Z,17.87
2018-11-04T02:28:31.853Z,15.37
2018-11-04T02:30:58.908Z,15.90
2018-11-04T02:33:27.783Z,17.00
2018-11-04T02:35:54.725Z,16.40
2018-11-04T02:38:21.677Z,14.80
2018-11-04T02:40:49.642Z,15.93
2018-11-04T02:43:16.587Z,15.93
2018-11-04T02:45:43.547Z,16.33
2018-11-04T02:48:10.471Z,16.47
2018-11-04T02:50:37.414Z,15.37
2018-11-04T02:53:04.701Z,15.77
2018-11-04T02:55:31.623Z,16.43
2018-11-04T02:57:58.559Z,15.60
2018-11-04T03:00:25.523Z,16.50
2018-11-04T03:02:52.502Z,15.40
2018-11-04T03:05:19.470Z,17.03
2018-11-04T03:07:46.456Z,15.53
2018-11-04T03:10:14.187Z,17.13
2018-11-04T03:12:41.175Z,17.73
2018-11-04T03:15:08.124Z,16.83
2018-11-04T03:17:35.226Z,18.07
2018-11-04T03:20:02.195Z,16.90
2018-11-04T03:22:29.130Z,17.10
2018-11-04T03:24:56.079Z,16.50
2018-11-04T03:27:24.076Z,17.30
2018-11-04T03:29:51.006Z,16.80
2018-11-04T03:32:18.083Z,17.13
2018-11-04T03:34:45.041Z,16.47
2018-11-04T03:37:11.907Z,17.80
2018-11-04T03:39:38.875Z,18.07
2018-11-04T03:42:05.865Z,17.40
2018-11-04T03:44:32.782Z,17.80
2018-11-04T03:46:59.711Z,19.00
2018-11-04T03:49:26.660Z,19.20
2018-11-04T03:51:54.523Z,16.73
2018-11-04T03:54:21.458Z,17.23
2018-11-04T03:56:49.323Z,17.70
2018-11-04T03:59:16.274Z,17.60
2018-11-04T04:01:43.226Z,18.13
2018-11-04T04:04:10.151Z,18.30
2018-11-04T04:06:37.116Z,16.83
2018-11-04T04:09:06.360Z,16.90
2018-11-04T04:11:33.244Z,16.67
2018-11-04T04:14:01.120Z,17.00
2018-11-04T04:16:28.067Z,18.30
2018-11-04T04:18:55.940Z,17.23
2018-11-04T04:21:22.866Z,18.63
2018-11-04T04:23:49.827Z,17.60
2018-11-04T04:26:16.767Z,18.03
2018-11-04T04:28:43.703Z,16.60
2018-11-04T04:31:10.670Z,17.40
2018-11-04T04:33:37.599Z,17.53
2018-11-04T04:36:04.968Z,17.57
2018-11-04T04:38:31.895Z,16.53
2018-11-04T04:40:58.855Z,17.67
2018-11-04T04:43:25.785Z,18.23
2018-11-04T04:45:52.756Z,17.33
2018-11-04T04:48:19.721Z,18.33
2018-11-04T04:50:46.622Z,18.80
2018-11-04T04:53:13.601Z,18.43
2018-11-04T04:55:40.543Z,18.50
2018-11-04T04:58:07.475Z,18.70
2018-11-04T05:00:34.391Z,18.57
2018-11-04T05:03:01.400Z,18.47
2018-11-04T05:05:28.335Z,19.90
2018-11-04T05:07:55.214Z,19.93
2018-11-04T05:10:22.179Z,18.67
2018-11-04T05:12:49.139Z,19.00
2018-11-04T05:15:16.063Z,18.63
2018-11-04T05:17:43.007Z,18.10
2018-11-04T05:20:09.953Z,18.07
2018-11-04T05:22:36.906Z,18.00
2018-11-04T05:25:04.383Z,18.17
2018-11-04T05:27:31.308Z,18.60
2018-11-04T05:29:58.259Z,21.40
2018-11-04T05:32:25.195Z,20.00
2018-11-04T05:34:53.159Z,19.30
2018-11-04T05:37:20.103Z,20.13
2018-11-04T05:39:48.011Z,19.20
2018-11-04T05:42:14.914Z,18.40
2018-11-04T05:44:41.935Z,20.37
2018-11-04T05:47:08.924Z,17.73
2018-11-04T05:49:37.270Z,19.80
2018-11-04T05:52:04.228Z,18.50
2018-11-04T05:54:31.175Z,18.50
2018-11-04T05:56:58.126Z,18.70
2018-11-04T05:59:25.067Z,19.23
2018-11-04T06:01:52.012Z,19.00
2018-11-04T06:04:18.855Z,18.33
2018-11-04T06:06:45.791Z,18.23
2018-11-04T06:09:12.774Z,17.70
2018-11-04T06:11:39.772Z,17.93
2018-11-04T06:14:06.731Z,22.30
2018-11-04T06:16:33.678Z,20.07
2018-11-04T06:19:00.635Z,20.20
2018-11-04T06:21:27.587Z,18.57
2018-11-04T06:23:54.571Z,19.20
2018-11-04T06:26:21.450Z,20.00
2018-11-04T06:28:48.399Z,18.23
2018-11-04T06:31:15.355Z,18.97
2018-11-04T06:33:42.321Z,18.37
2018-11-04T06:36:09.299Z,19.13
2018-11-04T06:38:36.178Z,21.30
2018-11-04T06:41:03.232Z,19.70
2018-11-04T06:43:30.104Z,20.30
2018-11-04T06:45:57.008Z,19.20
2018-11-04T06:48:23.954Z,21.77
2018-11-04T06:50:50.898Z,20.73
2018-11-04T06:53:17.851Z,20.10
2018-11-04T06:55:44.786Z,19.33
2018-11-04T06:58:11.739Z,19.53
2018-11-04T07:00:38.679Z,21.20
2018-11-04T07:03:05.626Z,19.30
2018-11-04T07:05:32.581Z,18.80
2018-11-04T07:07:59.523Z,19.23
2018-11-04T07:10:26.476Z,20.53
2018-11-04T07:12:54.522Z,18.60
2018-11-04T07:15:22.296Z,19.07
2018-11-04T07:17:49.539Z,19.67
2018-11-04T07:20:16.526Z,20.20
2018-11-04T07:22:43.439Z,19.70
2018-11-04T07:25:10.408Z,21.73
2018-11-04T07:27:37.374Z,20.40
2018-11-04T07:30:06.186Z,20.07
2018-11-04T07:32:33.087Z,19.30
2018-11-04T07:35:00.050Z,20.97
2018-11-04T07:37:26.971Z,19.77
2018-11-04T07:39:53.895Z,21.07
2018-11-04T07:42:20.846Z,19.60
2018-11-04T07:44:47.775Z,19.37
2018-11-04T07:47:14.760Z,19.50
2018-11-04T07:49:41.671Z,19.70
2018-11-04T07:52:08.619Z,20.10
2018-11-04T07:54:35.617Z,19.10
2018-11-04T07:57:02.580Z,19.53
2018-11-04T07:59:29.455Z,19.70
2018-11-04T08:01:56.403Z,20.27
2018-11-04T08:04:23.351Z,19.63
2018-11-04T08:06:50.323Z,18.43
2018-11-04T08:09:17.235Z,19.60
2018-11-04T08:11:45.141Z,21.17
2018-11-04T08:14:12.059Z,22.93
2018-11-04T08:16:39.031Z,22.20
2018-11-04T08:19:05.939Z,21.63
2018-11-04T08:21:32.871Z,20.50
2018-11-04T08:23:59.843Z,20.73
2018-11-04T08:26:26.779Z,20.20
2018-11-04T08:28:53.722Z,20.20
2018-11-04T08:31:20.663Z,20.50
2018-11-04T08:33:47.642Z,21.10
2018-11-04T08:36:14.631Z,19.10
2018-11-04T08:38:41.623Z,20.30
2018-11-04T08:41:08.608Z,20.17
2018-11-04T08:43:35.544Z,21.73
2018-11-04T08:46:02.498Z,20.27
2018-11-04T08:48:29.372Z,20.80
2018-11-04T08:50:56.351Z,23.10
2018-11-04T08:53:23.267Z,21.20
2018-11-04T08:55:50.240Z,20.90
2018-11-04T08:58:17.159Z,22.20
2018-11-04T09:00:44.099Z,20.87
2018-11-04T09:03:11.971Z,20.90
2018-11-04T09:05:38.919Z,20.30
2018-11-04T09:08:05.867Z,20.47
2018-11-04T09:10:32.949Z,20.10
2018-11-04T09:12:59.847Z,22.03
2018-11-04T09:15:26.797Z,23.37
2018-11-04T09:17:53.738Z,21.43
2018-11-04T09:20:20.683Z,21.23
2018-11-04T09:22:47.676Z,21.50
2018-11-04T09:25:14.622Z,20.33
2018-11-04T09:27:42.553Z,21.00
2018-11-04T09:30:11.542Z,21.07
2018-11-04T09:32:38.523Z,21.50
2018-11-04T09:35:05.900Z,19.83
2018-11-04T09:37:32.679Z,21.23
2018-11-04T09:39:59.631Z,21.60
2018-11-04T09:42:26.567Z,20.83
2018-11-04T09:44:54.530Z,21.83
2018-11-04T09:47:21.499Z,20.47
2018-11-04T09:49:48.532Z,21.70
2018-11-04T09:52:17.537Z,20.87
2018-11-04T09:54:44.475Z,21.20
2018-11-04T09:57:11.407Z,21.23
2018-11-04T09:59:38.372Z,19.70
2018-11-04T10:02:05.315Z,20.03
2018-11-04T10:04:32.246Z,20.17
2018-11-04T10:06:59.237Z,19.90
2018-11-04T10:09:26.136Z,20.53
2018-11-04T10:11:53.103Z,21.07
2018-11-04T10:14:20.079Z,20.23
2018-11-04T10:16:46.958Z,21.07
2018-11-04T10:19:14.049Z,21.53
2018-11-04T10:21:40.936Z,20.07
2018-11-04T10:24:07.935Z,20.77
2018-11-04T10:26:34.863Z,20.47
2018-11-04T10:29:01.899Z,21.20
2018-11-04T10:31:28.835Z,22.17
2018-11-04T10:33:55.775Z,20.80
2018-11-04T10:36:22.760Z,21.47
2018-11-04T10:38:49.740Z,20.13
2018-11-04T10:41:16.617Z,23.73
2018-11-04T10:43:43.555Z,21.63
2018-11-04T10:46:10.503Z,21.67
2018-11-04T10:48:37.446Z,20.47
2018-11-04T10:51:04.772Z,22.03
2018-11-04T10:53:31.651Z,20.80
2018-11-04T10:55:58.664Z,20.13
2018-11-04T10:58:25.532Z,22.47
2018-11-04T11:00:58.321Z,22.57
2018-11-04T11:03:25.302Z,22.77
2018-11-04T11:05:52.230Z,25.73
2018-11-04T11:08:19.182Z,26.63
2018-11-04T11:10:46.178Z,23.03
2018-11-04T11:13:13.110Z,22.87
2018-11-04T11:15:39.988Z,23.60
2018-11-04T11:18:06.935Z,24.43
2018-11-04T11:20:33.877Z,25.73
2018-11-04T11:23:01.093Z,22.20
2018-11-04T11:25:27.772Z,22.63
2018-11-04T11:27:54.711Z,24.40
2018-11-04T11:30:21.731Z,23.47
2018-11-04T11:32:48.619Z,22.90
2018-11-04T11:35:17.486Z,22.90
2018-11-04T11:37:44.458Z,23.20
2018-11-04T11:40:11.383Z,22.47
2018-11-04T11:42:38.375Z,21.63
2018-11-04T11:45:05.524Z,24.57
2018-11-04T11:47:32.467Z,26.12
2018-11-04T11:49:59.354Z,22.50
2018-11-04T11:52:26.329Z,22.63
2018-11-04T11:54:53.260Z,21.87
2018-11-04T11:57:20.219Z,22.90
2018-11-04T11:59:47.144Z,23.57
2018-11-04T12:02:14.127Z,22.70
2018-11-04T12:04:41.151Z,22.40
2018-11-04T12:07:08.144Z,22.23
2018-11-04T12:09:35.027Z,23.50
2018-11-04T12:12:01.975Z,22.77
2018-11-04T12:14:28.915Z,23.87
2018-11-04T12:16:55.867Z,21.70
2018-11-04T12:19:22.813Z,22.53
2018-11-04T12:21:49.772Z,22.73
2018-11-04T12:24:16.735Z,20.93
2018-11-04T12:26:43.668Z,25.47
2018-11-04T12:29:10.648Z,23.87
2018-11-04T12:31:37.588Z,22.43
2018-11-04T12:34:04.825Z,23.20
2018-11-04T12:36:31.739Z,21.80
2018-11-04T12:38:59.701Z,21.63
2018-11-04T12:41:26.660Z,20.97
2018-11-04T12:43:53.583Z,20.60
2018-11-04T12:46:20.531Z,20.57
2018-11-04T12:48:47.507Z,20.77
2018-11-04T12:51:14.457Z,21.07
2018-11-04T12:53:41.381Z,19.47
2018-11-04T12:56:08.315Z,19.97
2018-11-04T12:58:35.252Z,18.17
2018-11-04T13:01:02.201Z,18.77
2018-11-04T13:03:29.139Z,18.37
2018-11-04T13:05:56.143Z,17.73
2018-11-04T13:08:23.047Z,17.50
2018-11-04T13:10:49.969Z,17.90
2018-11-04T13:13:16.866Z,16.73
2018-11-04T13:15:43.795Z,17.40
2018-11-04T13:18:10.746Z,18.65
2018-11-04T13:20:37.685Z,17.10
2018-11-04T13:23:04.678Z,16.87
2018-11-04T13:25:31.590Z,16.70
2018-11-04T13:27:59.434Z,16.73
2018-11-04T13:30:26.374Z,16.57
2018-11-04T13:32:53.223Z,15.67
2018-11-04T13:35:20.206Z,16.10
2018-11-04T13:37:47.121Z,16.20
2018-11-04T13:40:14.063Z,17.03
2018-11-04T13:42:41.516Z,15.93
2018-11-04T13:45:09.077Z,15.67
2018-11-04T13:47:36.118Z,16.40
2018-11-04T13:50:03.282Z,16.00
2018-11-04T13:52:30.215Z,15.10
2018-11-04T13:54:57.075Z,15.77
2018-11-04T13:57:24.019Z,16.23
2018-11-04T13:59:50.966Z,14.23
2018-11-04T14:02:17.971Z,15.50
2018-11-04T14:04:44.834Z,15.00
2018-11-04T14:07:11.699Z,15.10
2018-11-04T14:09:38.628Z,15.60
2018-11-04T14:12:05.459Z,14.23
2018-11-04T14:14:32.331Z,14.77
2018-11-04T14:16:59.255Z,13.00
2018-11-04T14:19:26.214Z,13.90
2018-11-04T14:21:53.142Z,13.37
2018-11-04T14:24:20.088Z,13.97
2018-11-04T14:26:46.951Z,13.40
2018-11-04T14:29:13.883Z,13.67
2018-11-04T14:31:40.817Z,12.00
2018-11-04T14:34:07.694Z,13.63
2018-11-04T14:36:34.606Z,13.07
2018-11-04T14:39:01.467Z,12.80
2018-11-04T14:41:28.394Z,14.10
2018-11-04T14:43:55.344Z,15.20
2018-11-04T14:46:22.283Z,14.10
2018-11-04T14:48:49.150Z,14.20
2018-11-04T14:51:16.075Z,14.10
2018-11-04T14:53:43.023Z,14.50
2018-11-04T14:56:09.962Z,13.93
2018-11-04T14:58:36.811Z,14.23
2018-11-04T15:01:04.748Z,13.70
2018-11-04T15:03:31.611Z,14.60
2018-11-04T15:05:58.454Z,13.93
2018-11-04T15:08:25.314Z,14.13
2018-11-04T15:10:52.309Z,13.90
2018-11-04T15:13:19.267Z,13.80
2018-11-04T15:15:46.143Z,13.90
2018-11-04T15:18:13.078Z,15.32
2018-11-04T15:20:39.927Z,14.47
2018-11-04T15:23:06.872Z,14.00
2018-11-04T15:25:33.826Z,12.90
2018-11-04T15:28:00.759Z,13.37
2018-11-04T15:30:27.703Z,12.37
2018-11-04T15:32:54.649Z,13.83
2018-11-04T15:35:22.463Z,12.60
2018-11-04T15:37:49.406Z,13.07
2018-11-04T15:40:16.732Z,12.00
2018-11-04T15:42:43.550Z,11.33
2018-11-04T15:45:11.636Z,11.03
2018-11-04T15:47:38.761Z,11.63
2018-11-04T15:50:07.158Z,11.00
2018-11-04T15:52:33.985Z,10.70
2018-11-04T15:55:00.900Z,10.73
2018-11-04T15:57:28.498Z,10.23
2018-11-04T15:59:55.368Z,9.80
2018-11-04T16:02:22.299Z,9.70
2018-11-04T16:04:49.230Z,9.43
2018-11-04T16:07:16.323Z,10.67
2018-11-04T16:09:43.267Z,10.30
2018-11-04T16:12:10.523Z,10.20
2018-11-04T16:14:37.720Z,10.50
2018-11-04T16:17:04.595Z,10.40
2018-11-04T16:19:31.842Z,11.15
2018-11-04T16:21:59.989Z,9.63
2018-11-04T16:24:26.847Z,10.27
2018-11-04T16:26:54.845Z,9.83
2018-11-04T16:29:21.926Z,10.10
2018-11-04T16:31:48.856Z,10.23
2018-11-04T16:34:15.669Z,10.40
2018-11-04T16:36:42.570Z,9.17
2018-11-04T16:39:09.434Z,10.90
2018-11-04T16:41:36.462Z,9.67
2018-11-04T16:44:03.584Z,10.37
2018-11-04T16:46:30.504Z,10.50
2018-11-04T16:48:57.752Z,10.33
2018-11-04T16:51:25.647Z,9.70
2018-11-04T16:53:52.551Z,9.40
2018-11-04T16:56:19.520Z,10.20
2018-11-04T16:58:46.323Z,9.87
2018-11-04T17:01:13.263Z,10.47
2018-11-04T17:03:40.314Z,9.23
2018-11-04T17:06:07.270Z,9.00
2018-11-04T17:08:34.204Z,9.60
2018-11-04T17:11:01.145Z,9.27
2018-11-04T17:13:28.123Z,9.50
2018-11-04T17:15:55.074Z,9.50
2018-11-04T17:18:21.985Z,8.90
2018-11-04T17:20:48.839Z,10.63
2018-11-04T17:23:15.802Z,9.53
2018-11-04T17:25:42.787Z,9.90
2018-11-04T17:28:09.695Z,10.00
2018-11-04T17:30:37.622Z,8.77
2018-11-04T17:33:05.298Z,9.97
2018-11-04T17:35:32.095Z,9.17
2018-11-04T17:37:58.991Z,11.03
2018-11-04T17:40:25.922Z,11.38
2018-11-04T17:42:52.894Z,9.30
2018-11-04T17:45:19.873Z,10.07
2018-11-04T17:47:47.103Z,8.77
2018-11-04T17:50:16.355Z,9.20
2018-11-04T17:52:43.822Z,9.80
2018-11-04T17:55:10.791Z,9.60
2018-11-04T17:57:37.706Z,8.83
2018-11-04T18:00:05.800Z,9.83
2018-11-04T18:02:32.626Z,9.40
2018-11-04T18:04:59.798Z,9.10
2018-11-04T18:07:26.890Z,8.83
2018-11-04T18:09:53.769Z,9.70
2018-11-04T18:12:20.708Z,10.10
2018-11-04T18:14:47.646Z,9.40
2018-11-04T18:17:14.512Z,9.87
2018-11-04T18:19:41.435Z,9.80
2018-11-04T18:22:08.394Z,10.47
2018-11-04T18:24:36.243Z,9.27
2018-11-04T18:27:03.211Z,10.47
2018-11-04T18:29:30.163Z,9.00
2018-11-04T18:31:57.113Z,10.53
2018-11-04T18:34:23.947Z,8.80
2018-11-04T18:36:50.871Z,10.10
2018-11-04T18:39:17.814Z,10.43
2018-11-04T18:41:44.755Z,10.27
2018-11-04T18:44:11.645Z,9.77
2018-11-04T18:46:38.546Z,9.70
2018-11-04T18:49:05.695Z,9.87
2018-11-04T18:51:32.631Z,9.13
2018-11-04T18:53:59.479Z,8.93
2018-11-04T18:56:26.338Z,9.47
2018-11-04T18:58:53.309Z,9.10
2018-11-04T19:01:20.235Z,9.67
2018-11-04T19:03:47.162Z,10.90
2018-11-04T19:06:14.099Z,11.40
2018-11-04T19:08:40.962Z,10.57
2018-11-04T19:11:07.973Z,9.60
2018-11-04T19:13:35.298Z,10.60
2018-11-04T19:16:02.197Z,10.20
2018-11-04T19:18:29.138Z,12.10
2018-11-04T19:20:56.007Z,12.45
2018-11-04T19:23:23.143Z,11.60
2018-11-04T19:25:50.082Z,10.00
2018-11-04T19:28:17.027Z,10.90
2018-11-04T19:30:43.973Z,10.93
2018-11-04T19:33:10.815Z,9.90
2018-11-04T19:35:37.750Z,10.50
2018-11-04T19:38:04.750Z,10.47
2018-11-04T19:40:31.688Z,9.93
2018-11-04T19:42:58.680Z,9.70
2018-11-04T19:45:25.466Z,10.97
2018-11-04T19:47:52.529Z,11.30
2018-11-04T19:50:19.576Z,10.50
2018-11-04T19:52:46.473Z,10.40
2018-11-04T19:55:13.422Z,12.70
2018-11-04T19:57:40.406Z,10.73
2018-11-04T20:00:08.679Z,11.40
2018-11-04T20:02:35.578Z,11.27
2018-11-04T20:05:02.518Z,12.97
2018-11-04T20:07:29.370Z,10.97
2018-11-04T20:09:56.323Z,11.30
2018-11-04T20:12:28.955Z,10.80
2018-11-04T20:14:55.838Z,11.10
2018-11-04T20:17:22.790Z,11.67
2018-11-04T20:19:55.474Z,11.50
2018-11-04T20:22:22.402Z,11.70
2018-11-04T20:24:55.062Z,11.03
2018-11-04T20:27:21.919Z,11.33
2018-11-04T20:29:48.899Z,12.20
2018-11-04T20:32:21.590Z,11.33
2018-11-04T20:34:48.478Z,11.07
2018-11-04T20:37:15.343Z,11.00
2018-11-04T20:39:49.211Z,11.50
2018-11-04T20:42:16.093Z,11.20
2018-11-04T20:44:44.575Z,11.93
2018-11-04T20:47:11.594Z,12.10
2018-11-04T20:49:44.558Z,12.33
2018-11-04T20:52:11.426Z,11.43
2018-11-04T20:54:38.279Z,12.40
2018-11-04T20:57:11.074Z,12.00
2018-11-04T20:59:38.002Z,11.40
2018-11-04T21:02:04.958Z,12.87
2018-11-04T21:04:31.795Z,11.80
2018-11-04T21:06:58.748Z,13.47
2018-11-04T21:09:25.683Z,12.50
2018-11-04T21:11:52.544Z,13.10
2018-11-04T21:14:19.479Z,12.97
2018-11-04T21:16:46.618Z,14.30
2018-11-04T21:19:13.351Z,14.30
2018-11-04T21:21:40.269Z,13.83
2018-11-04T21:24:07.155Z,14.53
2018-11-04T21:26:34.099Z,13.83
2018-11-04T21:29:01.245Z,15.90
2018-11-04T21:31:28.037Z,14.77
2018-11-04T21:33:54.922Z,13.33
2018-11-04T21:36:23.282Z,15.58
2018-11-04T21:38:50.067Z,14.40
2018-11-04T21:41:16.995Z,14.50
2018-11-04T21:43:44.204Z,13.80
2018-11-04T21:46:10.789Z,13.27
2018-11-04T21:48:37.734Z,14.17
2018-11-04T21:51:04.708Z,13.80
2018-11-04T21:53:31.530Z,13.90
2018-11-04T21:55:58.541Z,14.43
2018-11-04T21:58:25.307Z,12.77
2018-11-04T22:00:52.242Z,14.00
2018-11-04T22:03:19.288Z,14.23
2018-11-04T22:05:46.142Z,12.77
2018-11-04T22:08:13.078Z,14.23
2018-11-04T22:10:40.153Z,13.77
2018-11-04T22:13:06.980Z,14.17
2018-11-04T22:15:33.907Z,14.40
2018-11-04T22:18:00.767Z,15.80
2018-11-04T22:20:27.697Z,13.50
2018-11-04T22:22:54.642Z,16.73
2018-11-04T22:25:21.482Z,15.87
2018-11-04T22:27:48.423Z,15.50
2018-11-04T22:30:15.287Z,15.13
2018-11-04T22:32:42.212Z,16.53
2018-11-04T22:35:10.337Z,15.70
2018-11-04T22:37:37.530Z,17.17
2018-11-04T22:40:05.559Z,15.60
2018-11-04T22:42:32.446Z,17.03
2018-11-04T22:44:59.298Z,18.80
2018-11-04T22:47:26.234Z,18.75
2018-11-04T22:49:53.187Z,17.57
2018-11-04T22:52:20.127Z,17.97
2018-11-04T22:54:46.986Z,16.77
2018-11-04T22:57:13.915Z,17.13
2018-11-04T22:59:40.862Z,18.50
2018-11-04T23:02:07.802Z,17.30
2018-11-04T23:04:40.488Z,19.17
2018-11-04T23:07:07.483Z,18.20
2018-11-04T23:09:34.382Z,18.67
2018-11-04T23:12:01.324Z,20.00
2018-11-04T23:14:28.262Z,20.07
2018-11-04T23:16:55.123Z,18.20
2018-11-04T23:19:22.054Z,18.77
2018-11-04T23:21:48.993Z,20.17
2018-11-04T23:24:15.861Z,18.47
2018-11-04T23:26:42.779Z,18.40
2018-11-04T23:29:09.728Z,18.87
2018-11-04T23:31:36.586Z,19.13
2018-11-04T23:34:03.686Z,17.83
2018-11-04T23:36:30.575Z,17.60
2018-11-04T23:38:57.512Z,20.80
2018-11-04T23:41:24.444Z,19.00
2018-11-04T23:43:51.306Z,18.27
2018-11-04T23:46:18.238Z,18.93
2018-11-04T23:48:45.290Z,19.67
2018-11-04T23:51:12.227Z,17.70
2018-11-04T23:53:39.086Z,17.27
2018-11-04T23:56:06.010Z,17.17
2018-11-04T23:58:32.874Z,17.13
